sensor_id;sensor_type;location;lat;lon;timestamp;temperature;humidity
43894;DHT22;29556;50.846;4.442;2022-09-27T00:00:37;12.60;93.70
43894;DHT22;29556;50.846;4.442;2022-09-27T00:03:05;12.50;93.20
43894;DHT22;29556;50.846;4.442;2022-09-27T00:05:30;12.40;93.10
43894;DHT22;29556;50.846;4.442;2022-09-27T00:07:56;12.30;93.30
43894;DHT22;29556;50.846;4.442;2022-09-27T00:10:22;12.40;93.70
43894;DHT22;29556;50.846;4.442;2022-09-27T00:12:50;12.30;93.00
43894;DHT22;29556;50.846;4.442;2022-09-27T00:15:16;12.30;93.40
43894;DHT22;29556;50.846;4.442;2022-09-27T00:17:42;12.40;93.70
43894;DHT22;29556;50.846;4.442;2022-09-27T00:20:09;12.40;93.70
43894;DHT22;29556;50.846;4.442;2022-09-27T00:22:35;12.40;93.40
43894;DHT22;29556;50.846;4.442;2022-09-27T00:25:02;12.30;92.90
43894;DHT22;29556;50.846;4.442;2022-09-27T00:27:32;12.30;93.60
43894;DHT22;29556;50.846;4.442;2022-09-27T00:29:58;12.30;93.50
43894;DHT22;29556;50.846;4.442;2022-09-27T00:32:25;12.40;93.50
43894;DHT22;29556;50.846;4.442;2022-09-27T00:34:50;12.40;93.60
43894;DHT22;29556;50.846;4.442;2022-09-27T00:37:17;12.30;93.00
43894;DHT22;29556;50.846;4.442;2022-09-27T00:39:43;12.30;93.60
43894;DHT22;29556;50.846;4.442;2022-09-27T00:42:10;12.20;93.30
43894;DHT22;29556;50.846;4.442;2022-09-27T00:47:32;12.30;93.90
43894;DHT22;29556;50.846;4.442;2022-09-27T00:55:39;12.30;93.50
43894;DHT22;29556;50.846;4.442;2022-09-27T00:58:07;12.20;92.50
43894;DHT22;29556;50.846;4.442;2022-09-27T01:00:35;12.20;93.00
43894;DHT22;29556;50.846;4.442;2022-09-27T01:03:05;12.10;93.10
43894;DHT22;29556;50.846;4.442;2022-09-27T01:05:33;12.10;92.90
43894;DHT22;29556;50.846;4.442;2022-09-27T01:07:59;12.10;93.40
43894;DHT22;29556;50.846;4.442;2022-09-27T01:10:28;12.20;93.60
43894;DHT22;29556;50.846;4.442;2022-09-27T01:13:09;12.20;93.70
43894;DHT22;29556;50.846;4.442;2022-09-27T01:15:51;12.30;93.20
43894;DHT22;29556;50.846;4.442;2022-09-27T01:18:32;12.40;93.60
43894;DHT22;29556;50.846;4.442;2022-09-27T01:24:22;12.30;93.10
43894;DHT22;29556;50.846;4.442;2022-09-27T01:32:02;12.10;93.10
43894;DHT22;29556;50.846;4.442;2022-09-27T01:37:24;12.10;92.80
43894;DHT22;29556;50.846;4.442;2022-09-27T01:39:55;12.10;93.00
43894;DHT22;29556;50.846;4.442;2022-09-27T01:42:24;12.10;93.20
43894;DHT22;29556;50.846;4.442;2022-09-27T01:47:30;12.10;92.90
43894;DHT22;29556;50.846;4.442;2022-09-27T01:52:40;12.30;93.90
43894;DHT22;29556;50.846;4.442;2022-09-27T01:55:11;12.30;93.40
43894;DHT22;29556;50.846;4.442;2022-09-27T01:57:40;12.30;93.10
43894;DHT22;29556;50.846;4.442;2022-09-27T02:00:09;12.30;93.20
43894;DHT22;29556;50.846;4.442;2022-09-27T02:02:49;12.20;93.10
43894;DHT22;29556;50.846;4.442;2022-09-27T02:05:18;12.20;93.20
43894;DHT22;29556;50.846;4.442;2022-09-27T02:07:51;12.30;93.40
43894;DHT22;29556;50.846;4.442;2022-09-27T02:10:24;12.30;93.40
43894;DHT22;29556;50.846;4.442;2022-09-27T02:15:26;12.30;93.30
43894;DHT22;29556;50.846;4.442;2022-09-27T02:18:01;12.30;93.00
43894;DHT22;29556;50.846;4.442;2022-09-27T02:20:40;12.30;93.10
43894;DHT22;29556;50.846;4.442;2022-09-27T02:25:58;12.20;92.60
43894;DHT22;29556;50.846;4.442;2022-09-27T02:28:29;12.10;92.80
43894;DHT22;29556;50.846;4.442;2022-09-27T02:30:55;12.20;92.80
43894;DHT22;29556;50.846;4.442;2022-09-27T02:33:25;12.10;93.10
43894;DHT22;29556;50.846;4.442;2022-09-27T02:35:52;12.20;93.30
43894;DHT22;29556;50.846;4.442;2022-09-27T02:38:18;12.30;92.80
43894;DHT22;29556;50.846;4.442;2022-09-27T02:40:46;12.10;91.70
43894;DHT22;29556;50.846;4.442;2022-09-27T02:43:13;12.10;92.40
43894;DHT22;29556;50.846;4.442;2022-09-27T02:54:06;12.30;92.20
43894;DHT22;29556;50.846;4.442;2022-09-27T02:56:49;12.20;92.80
43894;DHT22;29556;50.846;4.442;2022-09-27T02:59:34;12.30;92.70
43894;DHT22;29556;50.846;4.442;2022-09-27T03:04:47;12.30;92.60
43894;DHT22;29556;50.846;4.442;2022-09-27T03:07:16;12.30;92.40
43894;DHT22;29556;50.846;4.442;2022-09-27T03:09:49;12.30;92.40
43894;DHT22;29556;50.846;4.442;2022-09-27T03:12:17;12.30;92.70
43894;DHT22;29556;50.846;4.442;2022-09-27T03:14:51;12.30;92.50
43894;DHT22;29556;50.846;4.442;2022-09-27T03:17:17;12.30;92.20
43894;DHT22;29556;50.846;4.442;2022-09-27T03:19:43;12.30;92.50
43894;DHT22;29556;50.846;4.442;2022-09-27T03:22:08;12.30;92.40
43894;DHT22;29556;50.846;4.442;2022-09-27T03:24:34;12.30;92.50
43894;DHT22;29556;50.846;4.442;2022-09-27T03:26:59;12.30;92.20
43894;DHT22;29556;50.846;4.442;2022-09-27T03:29:25;12.30;92.40
43894;DHT22;29556;50.846;4.442;2022-09-27T03:31:50;12.30;92.30
43894;DHT22;29556;50.846;4.442;2022-09-27T03:34:16;12.40;92.70
43894;DHT22;29556;50.846;4.442;2022-09-27T03:36:42;12.40;92.70
43894;DHT22;29556;50.846;4.442;2022-09-27T03:39:07;12.40;92.30
43894;DHT22;29556;50.846;4.442;2022-09-27T03:41:33;12.40;92.40
43894;DHT22;29556;50.846;4.442;2022-09-27T03:43:59;12.40;92.50
43894;DHT22;29556;50.846;4.442;2022-09-27T03:46:25;12.40;92.40
43894;DHT22;29556;50.846;4.442;2022-09-27T03:48:51;12.40;92.40
43894;DHT22;29556;50.846;4.442;2022-09-27T03:51:17;12.40;92.60
43894;DHT22;29556;50.846;4.442;2022-09-27T03:53:42;12.40;92.40
43894;DHT22;29556;50.846;4.442;2022-09-27T03:56:08;12.50;92.80
43894;DHT22;29556;50.846;4.442;2022-09-27T03:58:34;12.50;92.40
43894;DHT22;29556;50.846;4.442;2022-09-27T04:01:00;12.50;92.50
43894;DHT22;29556;50.846;4.442;2022-09-27T04:03:25;12.50;92.50
43894;DHT22;29556;50.846;4.442;2022-09-27T04:05:54;12.50;92.40
43894;DHT22;29556;50.846;4.442;2022-09-27T04:08:20;12.50;92.80
43894;DHT22;29556;50.846;4.442;2022-09-27T04:10:46;12.40;92.00
43894;DHT22;29556;50.846;4.442;2022-09-27T04:13:12;12.40;92.30
43894;DHT22;29556;50.846;4.442;2022-09-27T04:15:47;12.40;92.70
43894;DHT22;29556;50.846;4.442;2022-09-27T04:18:13;12.50;92.80
43894;DHT22;29556;50.846;4.442;2022-09-27T04:20:39;12.40;92.60
43894;DHT22;29556;50.846;4.442;2022-09-27T04:23:07;12.40;92.50
43894;DHT22;29556;50.846;4.442;2022-09-27T04:25:34;12.40;92.50
43894;DHT22;29556;50.846;4.442;2022-09-27T04:28:00;12.40;93.00
43894;DHT22;29556;50.846;4.442;2022-09-27T04:30:31;12.40;92.90
43894;DHT22;29556;50.846;4.442;2022-09-27T04:32:57;12.20;92.40
43894;DHT22;29556;50.846;4.442;2022-09-27T04:35:22;12.20;92.40
43894;DHT22;29556;50.846;4.442;2022-09-27T04:38:06;12.20;92.40
43894;DHT22;29556;50.846;4.442;2022-09-27T04:40:36;12.30;93.10
43894;DHT22;29556;50.846;4.442;2022-09-27T04:43:03;12.30;92.90
43894;DHT22;29556;50.846;4.442;2022-09-27T04:45:29;12.30;92.70
43894;DHT22;29556;50.846;4.442;2022-09-27T04:47:55;12.40;93.10
43894;DHT22;29556;50.846;4.442;2022-09-27T04:50:21;12.20;92.20
43894;DHT22;29556;50.846;4.442;2022-09-27T04:52:51;12.20;92.70
43894;DHT22;29556;50.846;4.442;2022-09-27T04:55:17;12.20;92.60
43894;DHT22;29556;50.846;4.442;2022-09-27T04:57:43;12.20;92.70
43894;DHT22;29556;50.846;4.442;2022-09-27T05:00:09;12.20;92.70
43894;DHT22;29556;50.846;4.442;2022-09-27T05:02:35;12.30;92.70
43894;DHT22;29556;50.846;4.442;2022-09-27T05:05:01;12.30;92.80
43894;DHT22;29556;50.846;4.442;2022-09-27T05:07:27;12.10;92.40
43894;DHT22;29556;50.846;4.442;2022-09-27T05:09:53;12.00;92.10
43894;DHT22;29556;50.846;4.442;2022-09-27T05:12:20;12.00;92.50
43894;DHT22;29556;50.846;4.442;2022-09-27T05:14:46;12.00;92.60
43894;DHT22;29556;50.846;4.442;2022-09-27T05:17:12;12.00;92.60
43894;DHT22;29556;50.846;4.442;2022-09-27T05:19:38;12.00;92.20
43894;DHT22;29556;50.846;4.442;2022-09-27T05:22:05;12.00;92.40
43894;DHT22;29556;50.846;4.442;2022-09-27T05:24:32;12.00;92.50
43894;DHT22;29556;50.846;4.442;2022-09-27T05:27:01;12.00;92.30
43894;DHT22;29556;50.846;4.442;2022-09-27T05:29:28;12.00;92.50
43894;DHT22;29556;50.846;4.442;2022-09-27T05:31:54;12.00;92.40
43894;DHT22;29556;50.846;4.442;2022-09-27T05:34:19;12.10;92.60
43894;DHT22;29556;50.846;4.442;2022-09-27T05:36:52;12.20;92.70
43894;DHT22;29556;50.846;4.442;2022-09-27T05:39:17;12.30;92.80
43894;DHT22;29556;50.846;4.442;2022-09-27T05:41:45;12.20;92.40
43894;DHT22;29556;50.846;4.442;2022-09-27T05:44:12;12.20;92.60
43894;DHT22;29556;50.846;4.442;2022-09-27T05:46:38;12.20;92.50
43894;DHT22;29556;50.846;4.442;2022-09-27T05:49:04;12.20;92.60
43894;DHT22;29556;50.846;4.442;2022-09-27T05:51:30;12.20;92.70
43894;DHT22;29556;50.846;4.442;2022-09-27T05:53:57;12.20;92.50
43894;DHT22;29556;50.846;4.442;2022-09-27T05:56:23;12.10;92.00
43894;DHT22;29556;50.846;4.442;2022-09-27T05:58:50;12.10;92.30
43894;DHT22;29556;50.846;4.442;2022-09-27T06:01:16;12.10;92.10
43894;DHT22;29556;50.846;4.442;2022-09-27T06:03:41;12.00;92.00
43894;DHT22;29556;50.846;4.442;2022-09-27T06:06:08;12.00;92.30
43894;DHT22;29556;50.846;4.442;2022-09-27T06:08:37;12.10;92.50
43894;DHT22;29556;50.846;4.442;2022-09-27T06:11:06;12.10;92.50
43894;DHT22;29556;50.846;4.442;2022-09-27T06:13:33;12.20;92.70
43894;DHT22;29556;50.846;4.442;2022-09-27T06:16:08;12.20;92.50
43894;DHT22;29556;50.846;4.442;2022-09-27T06:18:36;12.10;92.00
43894;DHT22;29556;50.846;4.442;2022-09-27T06:21:04;12.20;92.90
43894;DHT22;29556;50.846;4.442;2022-09-27T06:23:35;12.30;92.70
43894;DHT22;29556;50.846;4.442;2022-09-27T06:26:16;12.30;92.60
43894;DHT22;29556;50.846;4.442;2022-09-27T06:28:46;12.20;92.50
43894;DHT22;29556;50.846;4.442;2022-09-27T06:31:22;12.20;92.80
43894;DHT22;29556;50.846;4.442;2022-09-27T06:33:53;12.40;92.70
43894;DHT22;29556;50.846;4.442;2022-09-27T06:36:26;12.10;92.50
43894;DHT22;29556;50.846;4.442;2022-09-27T06:39:00;12.20;92.70
43894;DHT22;29556;50.846;4.442;2022-09-27T06:41:29;12.20;92.50
43894;DHT22;29556;50.846;4.442;2022-09-27T06:43:57;12.20;92.40
43894;DHT22;29556;50.846;4.442;2022-09-27T06:46:29;12.10;92.00
43894;DHT22;29556;50.846;4.442;2022-09-27T06:49:03;12.20;93.00
43894;DHT22;29556;50.846;4.442;2022-09-27T06:51:34;12.20;92.50
43894;DHT22;29556;50.846;4.442;2022-09-27T06:54:03;12.30;92.20
43894;DHT22;29556;50.846;4.442;2022-09-27T06:56:29;12.20;92.40
43894;DHT22;29556;50.846;4.442;2022-09-27T06:58:57;12.30;92.40
43894;DHT22;29556;50.846;4.442;2022-09-27T07:02:00;12.30;92.30
43894;DHT22;29556;50.846;4.442;2022-09-27T07:04:29;12.40;92.80
43894;DHT22;29556;50.846;4.442;2022-09-27T07:06:57;12.50;92.70
43894;DHT22;29556;50.846;4.442;2022-09-27T07:09:23;12.50;91.60
43894;DHT22;29556;50.846;4.442;2022-09-27T07:11:49;12.60;92.10
43894;DHT22;29556;50.846;4.442;2022-09-27T07:14:15;12.50;91.60
43894;DHT22;29556;50.846;4.442;2022-09-27T07:16:44;12.40;91.30
43894;DHT22;29556;50.846;4.442;2022-09-27T07:19:10;12.50;92.40
43894;DHT22;29556;50.846;4.442;2022-09-27T07:21:37;12.50;92.00
43894;DHT22;29556;50.846;4.442;2022-09-27T07:24:04;12.50;91.70
43894;DHT22;29556;50.846;4.442;2022-09-27T07:26:31;12.50;91.70
43894;DHT22;29556;50.846;4.442;2022-09-27T07:28:56;12.40;91.10
43894;DHT22;29556;50.846;4.442;2022-09-27T07:31:22;12.40;91.50
43894;DHT22;29556;50.846;4.442;2022-09-27T07:33:48;12.50;91.60
43894;DHT22;29556;50.846;4.442;2022-09-27T07:36:14;12.50;91.60
43894;DHT22;29556;50.846;4.442;2022-09-27T07:38:40;12.50;91.40
43894;DHT22;29556;50.846;4.442;2022-09-27T07:41:11;12.60;91.40
43894;DHT22;29556;50.846;4.442;2022-09-27T07:43:38;12.70;92.20
43894;DHT22;29556;50.846;4.442;2022-09-27T07:46:05;12.80;91.90
43894;DHT22;29556;50.846;4.442;2022-09-27T07:48:32;12.80;91.10
43894;DHT22;29556;50.846;4.442;2022-09-27T07:50:58;12.80;91.90
43894;DHT22;29556;50.846;4.442;2022-09-27T07:53:24;12.80;90.70
43894;DHT22;29556;50.846;4.442;2022-09-27T07:55:51;12.80;91.10
43894;DHT22;29556;50.846;4.442;2022-09-27T07:58:20;12.70;90.60
43894;DHT22;29556;50.846;4.442;2022-09-27T08:00:46;12.70;91.30
43894;DHT22;29556;50.846;4.442;2022-09-27T08:03:14;12.70;91.40
43894;DHT22;29556;50.846;4.442;2022-09-27T08:05:41;12.70;90.90
43894;DHT22;29556;50.846;4.442;2022-09-27T08:08:09;12.70;91.40
43894;DHT22;29556;50.846;4.442;2022-09-27T08:10:35;12.70;91.30
43894;DHT22;29556;50.846;4.442;2022-09-27T08:13:02;12.60;90.40
43894;DHT22;29556;50.846;4.442;2022-09-27T08:15:32;12.60;90.00
43894;DHT22;29556;50.846;4.442;2022-09-27T08:18:05;12.50;90.50
43894;DHT22;29556;50.846;4.442;2022-09-27T08:20:32;12.50;90.60
43894;DHT22;29556;50.846;4.442;2022-09-27T08:22:57;12.40;90.80
43894;DHT22;29556;50.846;4.442;2022-09-27T08:25:23;12.60;91.50
43894;DHT22;29556;50.846;4.442;2022-09-27T08:27:56;12.60;91.00
43894;DHT22;29556;50.846;4.442;2022-09-27T08:30:23;12.60;90.70
43894;DHT22;29556;50.846;4.442;2022-09-27T08:32:49;12.70;91.50
43894;DHT22;29556;50.846;4.442;2022-09-27T08:35:14;12.70;91.30
43894;DHT22;29556;50.846;4.442;2022-09-27T08:37:42;12.80;91.80
43894;DHT22;29556;50.846;4.442;2022-09-27T08:40:12;12.90;92.10
43894;DHT22;29556;50.846;4.442;2022-09-27T08:43:17;13.00;91.80
43894;DHT22;29556;50.846;4.442;2022-09-27T08:45:50;13.00;91.40
43894;DHT22;29556;50.846;4.442;2022-09-27T08:48:22;13.00;90.50
43894;DHT22;29556;50.846;4.442;2022-09-27T08:50:51;12.80;90.80
43894;DHT22;29556;50.846;4.442;2022-09-27T08:53:25;12.60;89.60
43894;DHT22;29556;50.846;4.442;2022-09-27T08:55:56;12.60;91.10
43894;DHT22;29556;50.846;4.442;2022-09-27T09:01:04;12.50;90.70
43894;DHT22;29556;50.846;4.442;2022-09-27T09:03:38;12.50;91.20
43894;DHT22;29556;50.846;4.442;2022-09-27T09:20:23;12.60;91.90
43894;DHT22;29556;50.846;4.442;2022-09-27T09:28:20;12.40;92.20
43894;DHT22;29556;50.846;4.442;2022-09-27T09:33:40;12.50;92.50
43894;DHT22;29556;50.846;4.442;2022-09-27T09:36:20;12.50;92.80
43894;DHT22;29556;50.846;4.442;2022-09-27T09:38:51;12.50;92.80
43894;DHT22;29556;50.846;4.442;2022-09-27T09:43:51;12.50;92.70
43894;DHT22;29556;50.846;4.442;2022-09-27T09:46:25;12.70;92.90
43894;DHT22;29556;50.846;4.442;2022-09-27T09:48:59;12.80;93.00
43894;DHT22;29556;50.846;4.442;2022-09-27T09:51:37;12.80;91.50
43894;DHT22;29556;50.846;4.442;2022-09-27T10:03:04;13.20;91.60
43894;DHT22;29556;50.846;4.442;2022-09-27T10:05:33;13.40;92.30
43894;DHT22;29556;50.846;4.442;2022-09-27T10:11:04;13.60;91.90
43894;DHT22;29556;50.846;4.442;2022-09-27T10:13:53;13.70;91.70
43894;DHT22;29556;50.846;4.442;2022-09-27T10:17:02;13.70;91.50
43894;DHT22;29556;50.846;4.442;2022-09-27T10:19:43;13.70;90.90
43894;DHT22;29556;50.846;4.442;2022-09-27T10:22:31;13.60;90.40
43894;DHT22;29556;50.846;4.442;2022-09-27T10:25:08;13.70;91.00
43894;DHT22;29556;50.846;4.442;2022-09-27T10:34:47;14.00;90.60
43894;DHT22;29556;50.846;4.442;2022-09-27T10:37:23;14.20;91.20
43894;DHT22;29556;50.846;4.442;2022-09-27T10:40:30;14.30;90.10
43894;DHT22;29556;50.846;4.442;2022-09-27T10:42:56;14.20;88.90
43894;DHT22;29556;50.846;4.442;2022-09-27T10:48:32;14.20;87.80
43894;DHT22;29556;50.846;4.442;2022-09-27T10:51:24;14.40;90.20
43894;DHT22;29556;50.846;4.442;2022-09-27T10:54:01;14.50;90.00
43894;DHT22;29556;50.846;4.442;2022-09-27T10:56:37;14.40;87.20
43894;DHT22;29556;50.846;4.442;2022-09-27T10:59:03;14.00;85.70
43894;DHT22;29556;50.846;4.442;2022-09-27T11:02:19;14.10;85.80
43894;DHT22;29556;50.846;4.442;2022-09-27T11:05:28;14.10;87.30
43894;DHT22;29556;50.846;4.442;2022-09-27T11:08:01;14.10;87.10
43894;DHT22;29556;50.846;4.442;2022-09-27T11:10:59;13.90;85.90
43894;DHT22;29556;50.846;4.442;2022-09-27T11:13:21;13.80;86.80
43894;DHT22;29556;50.846;4.442;2022-09-27T11:16:16;13.90;87.20
43894;DHT22;29556;50.846;4.442;2022-09-27T11:18:56;14.10;87.60
43894;DHT22;29556;50.846;4.442;2022-09-27T11:30:01;14.20;84.30
43894;DHT22;29556;50.846;4.442;2022-09-27T11:32:32;14.00;78.40
43894;DHT22;29556;50.846;4.442;2022-09-27T11:54:49;14.10;80.10
43894;DHT22;29556;50.846;4.442;2022-09-27T11:57:31;14.30;78.20
43894;DHT22;29556;50.846;4.442;2022-09-27T12:11:40;13.90;76.40
43894;DHT22;29556;50.846;4.442;2022-09-27T12:14:19;13.90;78.30
43894;DHT22;29556;50.846;4.442;2022-09-27T12:16:46;14.10;79.60
43894;DHT22;29556;50.846;4.442;2022-09-27T12:19:31;14.40;83.50
43894;DHT22;29556;50.846;4.442;2022-09-27T12:22:04;14.50;77.20
43894;DHT22;29556;50.846;4.442;2022-09-27T12:24:32;14.50;79.30
43894;DHT22;29556;50.846;4.442;2022-09-27T12:27:06;14.70;83.50
43894;DHT22;29556;50.846;4.442;2022-09-27T12:29:38;14.60;81.50
43894;DHT22;29556;50.846;4.442;2022-09-27T12:32:15;14.80;81.60
43894;DHT22;29556;50.846;4.442;2022-09-27T12:34:50;14.70;79.90
43894;DHT22;29556;50.846;4.442;2022-09-27T12:37:28;14.60;77.00
43894;DHT22;29556;50.846;4.442;2022-09-27T12:40:15;14.40;72.80
43894;DHT22;29556;50.846;4.442;2022-09-27T12:43:01;14.30;74.10
43894;DHT22;29556;50.846;4.442;2022-09-27T12:51:12;14.10;75.20
43894;DHT22;29556;50.846;4.442;2022-09-27T12:53:58;14.20;78.50
43894;DHT22;29556;50.846;4.442;2022-09-27T12:59:31;14.30;74.60
43894;DHT22;29556;50.846;4.442;2022-09-27T13:02:15;14.50;77.60
43894;DHT22;29556;50.846;4.442;2022-09-27T13:05:07;14.40;77.90
43894;DHT22;29556;50.846;4.442;2022-09-27T13:08:14;14.30;80.80
43894;DHT22;29556;50.846;4.442;2022-09-27T13:11:01;14.30;81.50
43894;DHT22;29556;50.846;4.442;2022-09-27T13:13:31;14.40;85.00
43894;DHT22;29556;50.846;4.442;2022-09-27T13:15:59;14.60;86.40
43894;DHT22;29556;50.846;4.442;2022-09-27T13:20:54;14.80;85.70
43894;DHT22;29556;50.846;4.442;2022-09-27T13:28:31;15.00;80.20
43894;DHT22;29556;50.846;4.442;2022-09-27T13:32:10;15.10;81.60
43894;DHT22;29556;50.846;4.442;2022-09-27T13:34:48;14.90;77.00
43894;DHT22;29556;50.846;4.442;2022-09-27T13:40:35;14.90;75.70
43894;DHT22;29556;50.846;4.442;2022-09-27T13:45:41;15.10;78.60
43894;DHT22;29556;50.846;4.442;2022-09-27T13:48:22;15.10;75.90
43894;DHT22;29556;50.846;4.442;2022-09-27T13:51:01;15.20;76.70
43894;DHT22;29556;50.846;4.442;2022-09-27T13:53:37;15.50;78.80
43894;DHT22;29556;50.846;4.442;2022-09-27T13:56:04;15.70;78.50
43894;DHT22;29556;50.846;4.442;2022-09-27T14:01:27;15.40;73.80
43894;DHT22;29556;50.846;4.442;2022-09-27T14:06:43;15.70;76.50
43894;DHT22;29556;50.846;4.442;2022-09-27T14:09:25;15.70;76.30
43894;DHT22;29556;50.846;4.442;2022-09-27T14:11:56;15.70;77.70
43894;DHT22;29556;50.846;4.442;2022-09-27T14:14:29;15.70;75.70
43894;DHT22;29556;50.846;4.442;2022-09-27T14:17:00;15.70;74.40
43894;DHT22;29556;50.846;4.442;2022-09-27T14:19:26;15.70;76.70
43894;DHT22;29556;50.846;4.442;2022-09-27T14:21:57;15.50;72.90
43894;DHT22;29556;50.846;4.442;2022-09-27T14:24:53;15.40;75.20
43894;DHT22;29556;50.846;4.442;2022-09-27T14:27:25;15.40;75.80
43894;DHT22;29556;50.846;4.442;2022-09-27T14:30:06;15.40;77.70
43894;DHT22;29556;50.846;4.442;2022-09-27T14:32:44;15.50;79.40
43894;DHT22;29556;50.846;4.442;2022-09-27T14:35:15;15.40;76.30
43894;DHT22;29556;50.846;4.442;2022-09-27T14:38:02;15.40;74.50
43894;DHT22;29556;50.846;4.442;2022-09-27T14:43:19;15.30;75.40
43894;DHT22;29556;50.846;4.442;2022-09-27T14:46:28;15.30;77.90
43894;DHT22;29556;50.846;4.442;2022-09-27T14:49:09;15.30;79.10
43894;DHT22;29556;50.846;4.442;2022-09-27T14:51:45;15.20;80.00
43894;DHT22;29556;50.846;4.442;2022-09-27T14:54:25;15.10;73.90
43894;DHT22;29556;50.846;4.442;2022-09-27T14:56:52;14.90;77.40
43894;DHT22;29556;50.846;4.442;2022-09-27T14:59:35;14.80;78.70
43894;DHT22;29556;50.846;4.442;2022-09-27T15:02:31;14.90;81.00
43894;DHT22;29556;50.846;4.442;2022-09-27T15:05:10;14.60;81.30
43894;DHT22;29556;50.846;4.442;2022-09-27T15:07:48;14.40;81.80
43894;DHT22;29556;50.846;4.442;2022-09-27T15:10:31;14.40;83.10
43894;DHT22;29556;50.846;4.442;2022-09-27T15:13:00;14.30;83.70
43894;DHT22;29556;50.846;4.442;2022-09-27T15:15:45;14.30;83.40
43894;DHT22;29556;50.846;4.442;2022-09-27T15:24:45;14.40;85.70
43894;DHT22;29556;50.846;4.442;2022-09-27T15:27:37;14.40;86.70
43894;DHT22;29556;50.846;4.442;2022-09-27T15:30:20;14.50;87.30
43894;DHT22;29556;50.846;4.442;2022-09-27T15:33:06;14.50;86.20
43894;DHT22;29556;50.846;4.442;2022-09-27T15:35:34;14.40;85.30
43894;DHT22;29556;50.846;4.442;2022-09-27T15:38:27;14.50;87.10
43894;DHT22;29556;50.846;4.442;2022-09-27T15:41:03;14.60;85.80
43894;DHT22;29556;50.846;4.442;2022-09-27T15:43:38;14.90;86.40
43894;DHT22;29556;50.846;4.442;2022-09-27T15:46:44;14.80;86.10
43894;DHT22;29556;50.846;4.442;2022-09-27T15:49:44;14.60;82.70
43894;DHT22;29556;50.846;4.442;2022-09-27T15:52:46;14.60;84.10
43894;DHT22;29556;50.846;4.442;2022-09-27T15:55:49;14.70;85.10
43894;DHT22;29556;50.846;4.442;2022-09-27T15:58:22;14.70;84.40
43894;DHT22;29556;50.846;4.442;2022-09-27T16:00:54;14.60;82.90
43894;DHT22;29556;50.846;4.442;2022-09-27T16:03:22;14.60;83.10
43894;DHT22;29556;50.846;4.442;2022-09-27T16:05:48;14.70;84.00
43894;DHT22;29556;50.846;4.442;2022-09-27T16:08:15;14.70;85.20
43894;DHT22;29556;50.846;4.442;2022-09-27T16:10:56;14.70;85.50
43894;DHT22;29556;50.846;4.442;2022-09-27T16:13:28;14.70;84.10
43894;DHT22;29556;50.846;4.442;2022-09-27T16:15:55;14.70;84.20
43894;DHT22;29556;50.846;4.442;2022-09-27T16:18:25;14.70;84.70
43894;DHT22;29556;50.846;4.442;2022-09-27T16:20:54;14.70;84.80
43894;DHT22;29556;50.846;4.442;2022-09-27T16:23:21;14.80;86.30
43894;DHT22;29556;50.846;4.442;2022-09-27T16:25:47;14.60;86.50
43894;DHT22;29556;50.846;4.442;2022-09-27T16:28:13;14.70;85.50
43894;DHT22;29556;50.846;4.442;2022-09-27T16:30:38;14.70;87.30
43894;DHT22;29556;50.846;4.442;2022-09-27T16:33:07;14.70;86.80
43894;DHT22;29556;50.846;4.442;2022-09-27T16:35:39;14.80;87.00
43894;DHT22;29556;50.846;4.442;2022-09-27T16:38:06;14.80;88.10
43894;DHT22;29556;50.846;4.442;2022-09-27T16:40:32;14.80;88.20
43894;DHT22;29556;50.846;4.442;2022-09-27T16:46:06;14.70;88.70
43894;DHT22;29556;50.846;4.442;2022-09-27T16:48:34;14.70;88.90
43894;DHT22;29556;50.846;4.442;2022-09-27T16:51:15;14.60;88.00
43894;DHT22;29556;50.846;4.442;2022-09-27T17:00:27;14.60;89.60
43894;DHT22;29556;50.846;4.442;2022-09-27T17:05:46;14.60;90.10
43894;DHT22;29556;50.846;4.442;2022-09-27T17:08:45;14.50;90.20
43894;DHT22;29556;50.846;4.442;2022-09-27T17:11:18;14.50;90.10
43894;DHT22;29556;50.846;4.442;2022-09-27T17:14:17;14.50;90.40
43894;DHT22;29556;50.846;4.442;2022-09-27T17:19:21;14.50;90.60
43894;DHT22;29556;50.846;4.442;2022-09-27T17:21:48;14.50;90.60
43894;DHT22;29556;50.846;4.442;2022-09-27T17:35:23;14.50;91.00
43894;DHT22;29556;50.846;4.442;2022-09-27T17:37:52;14.50;91.00
43894;DHT22;29556;50.846;4.442;2022-09-27T17:40:18;14.40;91.00
43894;DHT22;29556;50.846;4.442;2022-09-27T17:42:44;14.40;91.00
43894;DHT22;29556;50.846;4.442;2022-09-27T17:45:35;14.40;91.10
43894;DHT22;29556;50.846;4.442;2022-09-27T17:48:10;14.40;91.10
43894;DHT22;29556;50.846;4.442;2022-09-27T17:50:55;14.50;91.20
43894;DHT22;29556;50.846;4.442;2022-09-27T17:53:22;14.40;91.30
43894;DHT22;29556;50.846;4.442;2022-09-27T17:55:49;14.50;91.50
43894;DHT22;29556;50.846;4.442;2022-09-27T17:58:15;14.50;91.60
43894;DHT22;29556;50.846;4.442;2022-09-27T18:00:53;14.50;91.60
43894;DHT22;29556;50.846;4.442;2022-09-27T18:03:39;14.30;91.50
43894;DHT22;29556;50.846;4.442;2022-09-27T18:06:09;14.20;91.40
43894;DHT22;29556;50.846;4.442;2022-09-27T18:08:36;14.20;91.50
43894;DHT22;29556;50.846;4.442;2022-09-27T18:11:08;14.10;91.60
43894;DHT22;29556;50.846;4.442;2022-09-27T18:13:34;14.10;91.70
43894;DHT22;29556;50.846;4.442;2022-09-27T18:16:14;14.00;91.60
43894;DHT22;29556;50.846;4.442;2022-09-27T18:18:41;14.00;91.10
43894;DHT22;29556;50.846;4.442;2022-09-27T18:21:12;13.60;90.70
43894;DHT22;29556;50.846;4.442;2022-09-27T18:23:40;13.30;91.00
43894;DHT22;29556;50.846;4.442;2022-09-27T18:26:19;13.50;91.30
43894;DHT22;29556;50.846;4.442;2022-09-27T18:28:58;13.30;91.50
43894;DHT22;29556;50.846;4.442;2022-09-27T18:31:25;13.00;91.60
43894;DHT22;29556;50.846;4.442;2022-09-27T18:33:50;13.00;92.00
43894;DHT22;29556;50.846;4.442;2022-09-27T18:36:18;12.80;92.20
43894;DHT22;29556;50.846;4.442;2022-09-27T18:38:45;12.90;92.20
43894;DHT22;29556;50.846;4.442;2022-09-27T18:41:15;12.90;92.00
43894;DHT22;29556;50.846;4.442;2022-09-27T18:43:43;13.00;92.10
43894;DHT22;29556;50.846;4.442;2022-09-27T18:46:41;12.80;92.00
43894;DHT22;29556;50.846;4.442;2022-09-27T18:49:10;12.80;92.20
43894;DHT22;29556;50.846;4.442;2022-09-27T18:51:37;12.70;92.20
43894;DHT22;29556;50.846;4.442;2022-09-27T18:54:17;12.70;92.40
43894;DHT22;29556;50.846;4.442;2022-09-27T18:56:44;12.70;92.40
43894;DHT22;29556;50.846;4.442;2022-09-27T18:59:10;12.80;92.50
43894;DHT22;29556;50.846;4.442;2022-09-27T19:01:40;12.60;93.00
43894;DHT22;29556;50.846;4.442;2022-09-27T19:04:11;12.70;92.60
43894;DHT22;29556;50.846;4.442;2022-09-27T19:06:38;12.70;92.60
43894;DHT22;29556;50.846;4.442;2022-09-27T19:09:05;12.70;92.50
43894;DHT22;29556;50.846;4.442;2022-09-27T19:11:31;12.70;92.50
43894;DHT22;29556;50.846;4.442;2022-09-27T19:13:58;12.60;92.50
43894;DHT22;29556;50.846;4.442;2022-09-27T19:16:28;12.60;92.40